YM Initiative — A8HX4 — position and weather

sailwx.info

Track history (hours):
 
Tides and Currents Weather Stations Pressure Air Temp Water Temp Dewpoint Dewpoint Depression Visibility Wind Speed Wind Dir Waves Ship Positions

YM Initiative

Last reported at 2018-Feb-18 00:12 UTC. Time now 2018-Feb-19 23:20 UTC.
Position N 01°15' E 104°03'.

Length 173 m; draft 7.7 m.

Type: Cargo ship. MMSI: 635961368.

Date/timePositionNaut miles runAvg speedWind from/ knotsBaromVisibWave heightAir tempDewpointWater temp
2018-Feb-18 00:12N 01°15' E 104°03'614.8
2018-Feb-17 23:46N 01°13' E 103°56'415.3
2018-Feb-17 23:30N 01°12' E 103°53'613.1
2018-Feb-17 23:00N 01°09' E 103°47'612.6
2018-Feb-17 22:30N 01°04' E 103°42'510.0
2018-Feb-17 22:00N 01°03' E 103°37'713.8
2018-Feb-17 21:29N 01°07' E 103°31'815.0
2018-Feb-17 20:58N 01°11' E 103°24'914.6
2018-Feb-17 20:21N 01°17' E 103°18'3 0.1
2018-Feb-16 03:28N 01°20' E 103°18'815.8
2018-Feb-16 02:58N 01°14' E 103°24'816.0
2018-Feb-16 02:30N 01°12' E 103°32'714.2
2018-Feb-16 01:59N 01°12' E 103°39'5 9.7
2018-Feb-16 01:31N 01°15' E 103°43'4 8.1
2018-Feb-16 01:00N 01°17' E 103°46'0 0.1
2018-Feb-16 00:27N 01°17' E 103°46'0 0.0
2018-Feb-15 23:57N 01°17' E 103°46'0 0.0
2018-Feb-15 23:30N 01°17' E 103°46'0 0.0
2018-Feb-15 22:57N 01°17' E 103°46'0 0.0
2018-Feb-15 22:30N 01°17' E 103°46'0 0.0
2018-Feb-15 22:00N 01°17' E 103°46'0 0.0
2018-Feb-15 21:18N 01°17' E 103°46'0 0.0
2018-Feb-15 21:00N 01°17' E 103°46'0 0.0
2018-Feb-15 20:15N 01°17' E 103°46'0 0.0
2018-Feb-15 15:21N 01°17' E 103°46'0 0.0
2018-Feb-15 15:00N 01°17' E 103°46'0 0.0
2018-Feb-15 14:30N 01°17' E 103°46'0 0.0
2018-Feb-15 13:54N 01°17' E 103°46'0 0.0
2018-Feb-15 13:30N 01°17' E 103°46'0 0.0
2018-Feb-15 13:00N 01°17' E 103°46'0 0.0
2018-Feb-15 12:21N 01°17' E 103°46'0 0.0
2018-Feb-15 12:00N 01°17' E 103°46'0 0.0
2018-Feb-15 11:09N 01°17' E 103°46'0 0.0
2018-Feb-15 10:57N 01°17' E 103°46'0 0.0
2018-Feb-15 10:30N 01°17' E 103°46'0 0.1
2018-Feb-15 10:00N 01°17' E 103°46'0 0.1
2018-Feb-15 09:27N 01°17' E 103°46'0 0.0
2018-Feb-15 08:54N 01°17' E 103°46'0 0.0
2018-Feb-15 08:30N 01°17' E 103°46'0 0.0
2018-Feb-15 08:00N 01°17' E 103°46'0 0.0
2018-Feb-15 07:30N 01°17' E 103°46'0 0.0
2018-Feb-15 06:57N 01°17' E 103°46'0 0.0
2018-Feb-15 06:30N 01°17' E 103°46'0 0.0
2018-Feb-15 06:00N 01°17' E 103°46'0 0.0
2018-Feb-15 05:27N 01°17' E 103°46'0 0.0
2018-Feb-15 05:00N 01°17' E 103°46'0 0.0
2018-Feb-15 04:30N 01°17' E 103°46'0 0.0
2018-Feb-15 04:00N 01°17' E 103°46'0 0.0
2018-Feb-15 03:30N 01°17' E 103°46'0 0.0
2018-Feb-15 02:54N 01°17' E 103°46'0 0.1
2018-Feb-15 02:30N 01°17' E 103°46'0 1.0
2018-Feb-15 02:01N 01°17' E 103°45'2 3.5
2018-Feb-15 01:31N 01°16' E 103°46'612.1
2018-Feb-15 01:01N 01°13' E 103°51'5 9.3
2018-Feb-15 00:29N 01°14' E 103°56'510.2
2018-Feb-14 23:59N 01°16' E 104°01'610.9
2018-Feb-14 23:28N 01°16' E 104°06'  
2018-Feb-11 00:29N 16°06' E 108°31'1316.8
2018-Feb-10 23:41N 16°11' E 108°18'417.1
2018-Feb-10 23:27N 16°10' E 108°14'3 7.6
2018-Feb-10 23:00N 16°07' E 108°13'0 0.1
2018-Feb-10 22:29N 16°07' E 108°13'0 0.0
2018-Feb-10 21:59N 16°07' E 108°13'0 0.0
2018-Feb-10 21:29N 16°07' E 108°13'0 0.0
2018-Feb-10 20:59N 16°07' E 108°13'0 0.0
2018-Feb-10 20:29N 16°07' E 108°13'0 0.0
2018-Feb-10 19:59N 16°07' E 108°13'0 0.0
2018-Feb-10 19:29N 16°07' E 108°13'0 0.0
2018-Feb-10 18:59N 16°07' E 108°13'0 0.0
2018-Feb-10 18:29N 16°07' E 108°13'0 0.0
2018-Feb-10 17:59N 16°07' E 108°13'0 0.0
2018-Feb-10 17:28N 16°07' E 108°13'0 0.0
2018-Feb-10 16:58N 16°07' E 108°13'0 0.0
2018-Feb-10 16:28N 16°07' E 108°13'0 0.0
2018-Feb-10 15:58N 16°07' E 108°13'0 0.0
2018-Feb-10 15:28N 16°07' E 108°13'0 0.6
2018-Feb-10 15:00N 16°07' E 108°13'3 5.8
2018-Feb-10 14:31N 16°10' E 108°13'6 9.8
2018-Feb-10 13:51N 16°16' E 108°14'  
Track history (hours):
 
Tides and Currents Weather Stations Pressure Air Temp Water Temp Dewpoint Dewpoint Depression Visibility Wind Speed Wind Dir Waves Ship Positions

YM Initiative

Last reported at 2018-Feb-18 00:12 UTC. Time now 2018-Feb-19 23:20 UTC.
Position N 01°15' E 104°03'.

Length 173 m; draft 7.7 m.

Type: Cargo ship. MMSI: 635961368.

Date/timePositionNaut miles runAvg speedWind from/ knotsBaromVisibWave heightAir tempDewpointWater temp
2018-Feb-18 00:12N 01°15' E 104°03'614.8
2018-Feb-17 23:46N 01°13' E 103°56'415.3
2018-Feb-17 23:30N 01°12' E 103°53'613.1
2018-Feb-17 23:00N 01°09' E 103°47'612.6
2018-Feb-17 22:30N 01°04' E 103°42'510.0
2018-Feb-17 22:00N 01°03' E 103°37'713.8
2018-Feb-17 21:29N 01°07' E 103°31'815.0
2018-Feb-17 20:58N 01°11' E 103°24'914.6
2018-Feb-17 20:21N 01°17' E 103°18'3 0.1
2018-Feb-16 03:28N 01°20' E 103°18'815.8
2018-Feb-16 02:58N 01°14' E 103°24'816.0
2018-Feb-16 02:30N 01°12' E 103°32'714.2
2018-Feb-16 01:59N 01°12' E 103°39'5 9.7
2018-Feb-16 01:31N 01°15' E 103°43'4 8.1
2018-Feb-16 01:00N 01°17' E 103°46'0 0.1
2018-Feb-16 00:27N 01°17' E 103°46'0 0.0
2018-Feb-15 23:57N 01°17' E 103°46'0 0.0
2018-Feb-15 23:30N 01°17' E 103°46'0 0.0
2018-Feb-15 22:57N 01°17' E 103°46'0 0.0
2018-Feb-15 22:30N 01°17' E 103°46'0 0.0
2018-Feb-15 22:00N 01°17' E 103°46'0 0.0
2018-Feb-15 21:18N 01°17' E 103°46'0 0.0
2018-Feb-15 21:00N 01°17' E 103°46'0 0.0
2018-Feb-15 20:15N 01°17' E 103°46'0 0.0
2018-Feb-15 15:21N 01°17' E 103°46'0 0.0
2018-Feb-15 15:00N 01°17' E 103°46'0 0.0
2018-Feb-15 14:30N 01°17' E 103°46'0 0.0
2018-Feb-15 13:54N 01°17' E 103°46'0 0.0
2018-Feb-15 13:30N 01°17' E 103°46'0 0.0
2018-Feb-15 13:00N 01°17' E 103°46'0 0.0
2018-Feb-15 12:21N 01°17' E 103°46'0 0.0
2018-Feb-15 12:00N 01°17' E 103°46'0 0.0
2018-Feb-15 11:09N 01°17' E 103°46'0 0.0
2018-Feb-15 10:57N 01°17' E 103°46'0 0.0
2018-Feb-15 10:30N 01°17' E 103°46'0 0.1
2018-Feb-15 10:00N 01°17' E 103°46'0 0.1
2018-Feb-15 09:27N 01°17' E 103°46'0 0.0
2018-Feb-15 08:54N 01°17' E 103°46'0 0.0
2018-Feb-15 08:30N 01°17' E 103°46'0 0.0
2018-Feb-15 08:00N 01°17' E 103°46'0 0.0
2018-Feb-15 07:30N 01°17' E 103°46'0 0.0
2018-Feb-15 06:57N 01°17' E 103°46'0 0.0
2018-Feb-15 06:30N 01°17' E 103°46'0 0.0
2018-Feb-15 06:00N 01°17' E 103°46'0 0.0
2018-Feb-15 05:27N 01°17' E 103°46'0 0.0
2018-Feb-15 05:00N 01°17' E 103°46'0 0.0
2018-Feb-15 04:30N 01°17' E 103°46'0 0.0
2018-Feb-15 04:00N 01°17' E 103°46'0 0.0
2018-Feb-15 03:30N 01°17' E 103°46'0 0.0
2018-Feb-15 02:54N 01°17' E 103°46'0 0.1
2018-Feb-15 02:30N 01°17' E 103°46'0 1.0
2018-Feb-15 02:01N 01°17' E 103°45'2 3.5
2018-Feb-15 01:31N 01°16' E 103°46'612.1
2018-Feb-15 01:01N 01°13' E 103°51'5 9.3
2018-Feb-15 00:29N 01°14' E 103°56'510.2
2018-Feb-14 23:59N 01°16' E 104°01'610.9
2018-Feb-14 23:28N 01°16' E 104°06'  
2018-Feb-11 00:29N 16°06' E 108°31'1316.8
2018-Feb-10 23:41N 16°11' E 108°18'417.1
2018-Feb-10 23:27N 16°10' E 108°14'3 7.6
2018-Feb-10 23:00N 16°07' E 108°13'0 0.1
2018-Feb-10 22:29N 16°07' E 108°13'0 0.0
2018-Feb-10 21:59N 16°07' E 108°13'0 0.0
2018-Feb-10 21:29N 16°07' E 108°13'0 0.0
2018-Feb-10 20:59N 16°07' E 108°13'0 0.0
2018-Feb-10 20:29N 16°07' E 108°13'0 0.0
2018-Feb-10 19:59N 16°07' E 108°13'0 0.0
2018-Feb-10 19:29N 16°07' E 108°13'0 0.0
2018-Feb-10 18:59N 16°07' E 108°13'0 0.0
2018-Feb-10 18:29N 16°07' E 108°13'0 0.0
2018-Feb-10 17:59N 16°07' E 108°13'0 0.0
2018-Feb-10 17:28N 16°07' E 108°13'0 0.0
2018-Feb-10 16:58N 16°07' E 108°13'0 0.0
2018-Feb-10 16:28N 16°07' E 108°13'0 0.0
2018-Feb-10 15:58N 16°07' E 108°13'0 0.0
2018-Feb-10 15:28N 16°07' E 108°13'0 0.6
2018-Feb-10 15:00N 16°07' E 108°13'3 5.8
2018-Feb-10 14:31N 16°10' E 108°13'6 9.8
2018-Feb-10 13:51N 16°16' E 108°14'  

Dump ship's entire track history